createdAt,value
2018-12-03T00:01:12.601Z,13.10
2018-12-03T00:03:41.496Z,13.10
2018-12-03T00:06:10.513Z,13.00
2018-12-03T00:08:39.498Z,13.00
2018-12-03T00:11:08.749Z,13.00
2018-12-03T00:13:37.776Z,13.00
2018-12-03T00:16:07.029Z,12.90
2018-12-03T00:18:36.123Z,12.90
2018-12-03T00:21:05.109Z,12.90
2018-12-03T00:23:33.919Z,12.90
2018-12-03T00:26:02.803Z,12.90
2018-12-03T00:28:31.690Z,12.90
2018-12-03T00:31:00.829Z,12.90
2018-12-03T00:33:29.685Z,12.90
2018-12-03T00:35:58.571Z,12.90
2018-12-03T00:38:27.417Z,12.90
2018-12-03T00:40:57.109Z,12.90
2018-12-03T00:43:26.089Z,12.90
2018-12-03T00:45:55.149Z,12.90
2018-12-03T00:48:24.089Z,12.90
2018-12-03T00:50:53.554Z,13.00
2018-12-03T00:53:22.612Z,13.00
2018-12-03T00:55:51.533Z,13.10
2018-12-03T00:58:20.458Z,13.10
2018-12-03T01:00:49.283Z,13.20
2018-12-03T01:03:18.207Z,13.20
2018-12-03T01:05:47.372Z,13.20
2018-12-03T01:08:16.405Z,13.30
2018-12-03T01:10:45.381Z,13.30
2018-12-03T01:13:14.469Z,13.40
2018-12-03T01:15:43.609Z,13.40
2018-12-03T01:18:12.872Z,13.50
2018-12-03T01:20:41.952Z,13.40
2018-12-03T01:23:11.075Z,13.40
2018-12-03T01:25:40.112Z,13.40
2018-12-03T01:28:10.417Z,13.30
2018-12-03T01:30:40.079Z,13.30
2018-12-03T01:33:09.192Z,13.30
2018-12-03T01:35:38.511Z,13.30
2018-12-03T01:38:07.652Z,13.30
2018-12-03T01:40:36.595Z,13.30
2018-12-03T01:43:05.913Z,13.40
2018-12-03T01:45:34.894Z,13.40
2018-12-03T01:48:07.509Z,13.40
2018-12-03T01:50:36.673Z,13.40
2018-12-03T01:53:05.891Z,13.40
2018-12-03T01:55:34.935Z,13.40
2018-12-03T01:58:04.069Z,13.50
2018-12-03T02:00:33.030Z,13.50
2018-12-03T02:03:02.130Z,13.50
2018-12-03T02:05:30.997Z,13.50
2018-12-03T02:08:00.134Z,13.50
2018-12-03T02:10:28.894Z,13.40
2018-12-03T02:12:57.775Z,13.40
2018-12-03T02:15:27.791Z,13.40
2018-12-03T02:17:57.230Z,13.40
2018-12-03T02:20:26.400Z,13.40
2018-12-03T02:22:55.327Z,13.40
2018-12-03T02:25:24.236Z,13.40
2018-12-03T02:27:54.271Z,13.40
2018-12-03T02:30:23.959Z,13.30
2018-12-03T02:32:53.607Z,13.30
2018-12-03T02:35:22.555Z,13.20
2018-12-03T02:37:51.609Z,13.20
2018-12-03T02:40:20.610Z,13.10
2018-12-03T02:42:49.776Z,13.10
2018-12-03T02:45:19.052Z,13.00
2018-12-03T02:47:48.044Z,13.00
2018-12-03T02:50:17.229Z,13.00
2018-12-03T02:52:46.110Z,12.90
2018-12-03T02:55:15.161Z,12.90
2018-12-03T02:57:44.248Z,12.90
2018-12-03T03:00:16.452Z,13.00
2018-12-03T03:02:45.536Z,13.00
2018-12-03T03:05:15.391Z,12.90
2018-12-03T03:07:44.790Z,13.00
2018-12-03T03:10:15.389Z,13.00
2018-12-03T03:12:44.252Z,13.00
2018-12-03T03:15:14.205Z,13.00
2018-12-03T03:17:43.533Z,13.00
2018-12-03T03:20:13.538Z,13.10
2018-12-03T03:22:42.599Z,13.10
2018-12-03T03:25:12.088Z,13.20
2018-12-03T03:27:41.253Z,13.20
2018-12-03T03:30:13.167Z,13.30
2018-12-03T03:32:42.788Z,13.30
2018-12-03T03:35:13.030Z,13.30
2018-12-03T03:37:42.284Z,13.30
2018-12-03T03:40:13.830Z,13.20
2018-12-03T03:42:43.834Z,13.20
2018-12-03T03:45:16.257Z,13.10
2018-12-03T03:47:45.428Z,13.10
2018-12-03T03:50:14.564Z,13.10
2018-12-03T03:52:43.599Z,13.10
2018-12-03T03:55:12.581Z,13.10
2018-12-03T03:57:41.578Z,13.10
2018-12-03T04:00:15.819Z,13.00
2018-12-03T04:02:44.949Z,13.00
2018-12-03T04:05:15.033Z,13.00
2018-12-03T04:07:45.313Z,12.90
2018-12-03T04:10:14.953Z,12.90
2018-12-03T04:12:45.852Z,12.90
2018-12-03T04:15:15.697Z,12.90
2018-12-03T04:17:44.846Z,12.90
2018-12-03T04:20:18.524Z,12.80
2018-12-03T04:22:50.626Z,12.90
2018-12-03T04:25:19.672Z,12.90
2018-12-03T04:27:55.134Z,12.90
2018-12-03T04:30:24.557Z,12.90
2018-12-03T04:32:53.996Z,13.00
2018-12-03T04:35:24.111Z,12.90
2018-12-03T04:37:52.993Z,12.90
2018-12-03T04:40:21.994Z,12.90
2018-12-03T04:42:50.828Z,12.90
2018-12-03T04:45:19.788Z,12.90
2018-12-03T04:47:49.862Z,12.90
2018-12-03T04:50:20.882Z,12.90
2018-12-03T04:52:49.882Z,12.90
2018-12-03T04:55:19.849Z,12.90
2018-12-03T04:57:49.593Z,12.90
2018-12-03T05:00:19.408Z,13.10
2018-12-03T05:02:50.612Z,13.10
2018-12-03T05:05:19.770Z,13.20
2018-12-03T05:07:48.660Z,13.20
2018-12-03T05:10:18.498Z,13.30
2018-12-03T05:12:48.922Z,13.30
2018-12-03T05:15:17.894Z,13.30
2018-12-03T05:17:47.872Z,13.30
2018-12-03T05:20:18.276Z,13.20
2018-12-03T05:22:47.348Z,13.20
2018-12-03T05:25:19.079Z,13.20
2018-12-03T05:27:45.715Z,13.10
2018-12-03T05:30:16.055Z,13.20
2018-12-03T05:32:45.651Z,13.20
2018-12-03T05:35:19.194Z,13.20
2018-12-03T05:37:48.024Z,13.10
2018-12-03T05:40:31.829Z,13.00
2018-12-03T05:43:00.664Z,12.90
2018-12-03T05:45:29.443Z,12.80
2018-12-03T05:47:58.309Z,12.70
2018-12-03T05:50:27.333Z,12.70
2018-12-03T05:52:56.433Z,12.60
2018-12-03T05:55:25.480Z,12.70
2018-12-03T05:57:54.586Z,12.70
2018-12-03T06:00:24.802Z,12.70
2018-12-03T06:02:53.835Z,12.70
2018-12-03T06:05:23.046Z,12.70
2018-12-03T06:07:51.969Z,12.70
2018-12-03T06:10:21.979Z,12.70
2018-12-03T06:12:52.207Z,12.80
2018-12-03T06:15:21.893Z,12.70
2018-12-03T06:17:52.230Z,12.70
2018-12-03T06:20:22.062Z,12.60
2018-12-03T06:22:52.196Z,12.70
2018-12-03T06:25:28.995Z,12.80
2018-12-03T06:27:58.035Z,12.80
2018-12-03T06:30:27.989Z,12.80
2018-12-03T06:32:56.814Z,12.90
2018-12-03T06:35:25.758Z,12.90
2018-12-03T06:37:54.910Z,13.00
2018-12-03T06:40:31.927Z,13.00
2018-12-03T06:43:00.943Z,13.00
2018-12-03T06:45:30.340Z,12.90
2018-12-03T06:48:01.860Z,12.80
2018-12-03T06:50:30.862Z,12.70
2018-12-03T06:52:59.894Z,12.70
2018-12-03T06:55:28.912Z,12.70
2018-12-03T06:57:58.037Z,12.70
2018-12-03T07:00:30.348Z,12.70
2018-12-03T07:02:59.602Z,12.70
2018-12-03T07:05:28.463Z,12.70
2018-12-03T07:07:58.657Z,12.70
2018-12-03T07:10:28.187Z,12.70
2018-12-03T07:13:00.044Z,12.70
2018-12-03T07:15:31.070Z,12.60
2018-12-03T07:18:00.380Z,12.60
2018-12-03T07:20:29.295Z,12.60
2018-12-03T07:22:58.139Z,12.60
2018-12-03T07:25:27.212Z,12.60
2018-12-03T07:27:56.052Z,12.60
2018-12-03T07:30:26.121Z,12.60
2018-12-03T07:32:55.383Z,12.60
2018-12-03T07:35:24.674Z,12.60
2018-12-03T07:37:54.896Z,12.50
2018-12-03T07:40:23.834Z,12.50
2018-12-03T07:42:52.811Z,12.60
2018-12-03T07:45:23.022Z,12.50
2018-12-03T07:47:51.952Z,12.60
2018-12-03T07:50:22.063Z,12.50
2018-12-03T07:52:51.159Z,12.50
2018-12-03T07:55:22.190Z,12.60
2018-12-03T07:57:57.887Z,12.60
2018-12-03T08:00:28.552Z,12.60
2018-12-03T08:02:59.006Z,12.60
2018-12-03T08:05:28.027Z,12.60
2018-12-03T08:07:57.304Z,12.50
2018-12-03T08:10:26.609Z,12.60
2018-12-03T08:12:55.697Z,12.50
2018-12-03T08:15:24.999Z,12.60
2018-12-03T08:18:02.374Z,12.60
2018-12-03T08:20:34.602Z,12.70
2018-12-03T08:23:07.199Z,12.80
2018-12-03T08:25:36.227Z,12.90
2018-12-03T08:28:05.102Z,12.90
2018-12-03T08:30:34.065Z,13.00
2018-12-03T08:33:03.002Z,13.00
2018-12-03T08:35:31.977Z,13.00
2018-12-03T08:38:03.318Z,13.00
2018-12-03T08:40:30.026Z,13.10
2018-12-03T08:42:58.903Z,13.10
2018-12-03T08:45:27.795Z,13.10
2018-12-03T08:47:56.750Z,13.10
2018-12-03T08:50:26.899Z,13.10
2018-12-03T08:52:56.973Z,13.10
2018-12-03T08:55:25.834Z,13.00
2018-12-03T08:57:54.971Z,12.90
2018-12-03T09:00:28.003Z,12.80
2018-12-03T09:03:05.738Z,12.70
2018-12-03T09:05:39.717Z,12.70
2018-12-03T09:08:10.106Z,12.60
2018-12-03T09:10:39.773Z,12.50
2018-12-03T09:13:16.132Z,12.30
2018-12-03T09:15:50.139Z,12.10
2018-12-03T09:18:19.221Z,12.00
2018-12-03T09:20:48.905Z,12.00
2018-12-03T09:23:17.762Z,12.00
2018-12-03T09:25:46.678Z,12.00
2018-12-03T09:28:15.560Z,12.00
2018-12-03T09:30:49.729Z,12.00
2018-12-03T09:33:18.797Z,12.00
2018-12-03T09:35:47.643Z,12.00
2018-12-03T09:38:16.558Z,12.10
2018-12-03T09:40:45.409Z,12.10
2018-12-03T09:43:14.255Z,12.20
2018-12-03T09:45:43.239Z,12.20
2018-12-03T09:48:12.057Z,12.30
2018-12-03T09:50:41.024Z,12.30
2018-12-03T09:53:10.063Z,12.50
2018-12-03T09:55:39.291Z,12.50
2018-12-03T09:58:10.302Z,12.60
2018-12-03T10:00:39.009Z,12.60
2018-12-03T10:03:18.401Z,12.70
2018-12-03T10:05:50.483Z,12.70
2018-12-03T10:08:24.906Z,12.80
2018-12-03T10:10:57.931Z,12.80
2018-12-03T10:13:28.194Z,12.90
2018-12-03T10:15:57.419Z,13.00
2018-12-03T10:18:26.519Z,13.10
2018-12-03T10:20:59.062Z,13.20
2018-12-03T10:23:28.044Z,13.30
2018-12-03T10:25:58.447Z,13.40
2018-12-03T10:28:27.739Z,13.50
2018-12-03T10:30:57.602Z,13.50
2018-12-03T10:33:31.833Z,13.60
2018-12-03T10:36:02.662Z,13.60
2018-12-03T10:38:33.982Z,13.70
2018-12-03T10:41:09.682Z,13.70
2018-12-03T10:43:39.143Z,13.70
2018-12-03T10:46:09.793Z,13.80
2018-12-03T10:48:38.996Z,13.90
2018-12-03T10:51:13.818Z,14.10
2018-12-03T10:53:42.685Z,14.20
2018-12-03T10:56:12.014Z,14.40
2018-12-03T10:58:48.880Z,14.50
2018-12-03T11:01:23.887Z,14.50
2018-12-03T11:03:58.040Z,14.60
2018-12-03T11:06:27.110Z,14.70
2018-12-03T11:08:56.099Z,14.90
2018-12-03T11:11:25.038Z,15.20
2018-12-03T11:13:54.177Z,15.40
2018-12-03T11:16:27.309Z,15.40
2018-12-03T11:18:56.777Z,15.40
2018-12-03T11:21:26.526Z,15.30
2018-12-03T11:23:55.704Z,15.10
2018-12-03T11:26:30.546Z,15.10
2018-12-03T11:28:59.911Z,15.00
2018-12-03T11:31:30.451Z,15.10
2018-12-03T11:33:59.440Z,15.30
2018-12-03T11:36:48.090Z,15.40
2018-12-03T11:39:20.374Z,15.70
2018-12-03T11:41:52.462Z,15.80
2018-12-03T11:44:21.445Z,15.80
2018-12-03T11:46:50.459Z,15.90
2018-12-03T11:49:19.333Z,16.10
2018-12-03T11:51:48.313Z,16.30
2018-12-03T11:54:17.305Z,16.20
2018-12-03T11:56:46.223Z,16.00
2018-12-03T11:59:15.106Z,15.70
2018-12-03T12:01:44.266Z,15.60
2018-12-03T12:04:13.262Z,15.50
2018-12-03T12:06:42.258Z,15.50
2018-12-03T12:09:12.630Z,15.50
2018-12-03T12:11:42.256Z,15.50
2018-12-03T12:14:26.482Z,15.40
2018-12-03T12:16:55.516Z,15.30
2018-12-03T12:19:24.438Z,15.30
2018-12-03T12:21:53.668Z,15.20
2018-12-03T12:24:22.565Z,15.20
2018-12-03T12:26:53.290Z,15.10
2018-12-03T12:29:22.302Z,15.10
2018-12-03T12:31:51.379Z,15.10
2018-12-03T12:34:20.759Z,15.10
2018-12-03T12:36:49.935Z,14.90
2018-12-03T12:39:19.058Z,14.80
2018-12-03T12:41:48.123Z,14.70
2018-12-03T12:44:17.034Z,14.60
2018-12-03T12:46:47.999Z,14.60
2018-12-03T12:49:17.175Z,14.50
2018-12-03T12:51:52.053Z,14.40
2018-12-03T12:54:21.138Z,14.30
2018-12-03T12:56:51.891Z,14.20
2018-12-03T12:59:21.155Z,14.10
2018-12-03T13:01:50.248Z,13.90
2018-12-03T13:04:19.458Z,13.80
2018-12-03T13:06:48.460Z,13.70
2018-12-03T13:09:17.587Z,13.70
2018-12-03T13:11:46.547Z,13.60
2018-12-03T13:14:15.702Z,13.50
2018-12-03T13:16:44.538Z,13.40
2018-12-03T13:19:13.709Z,13.30
2018-12-03T13:21:42.664Z,13.20
2018-12-03T13:24:11.794Z,13.10
2018-12-03T13:26:42.491Z,13.00
2018-12-03T13:29:11.567Z,13.00
2018-12-03T13:31:41.033Z,13.00
2018-12-03T13:34:16.364Z,12.90
2018-12-03T13:36:45.477Z,12.90
2018-12-03T13:39:14.565Z,12.90
2018-12-03T13:41:43.576Z,12.80
2018-12-03T13:44:12.605Z,12.80
2018-12-03T13:46:41.452Z,12.90
2018-12-03T13:49:10.382Z,12.90
2018-12-03T13:51:39.375Z,12.90
2018-12-03T13:54:08.628Z,12.90
2018-12-03T13:56:42.318Z,12.90
2018-12-03T13:59:17.709Z,12.80
2018-12-03T14:01:46.566Z,12.80
2018-12-03T14:04:16.118Z,12.90
2018-12-03T14:08:58.619Z,12.80
2018-12-03T14:11:49.779Z,12.80
2018-12-03T14:14:26.071Z,12.80
2018-12-03T14:17:07.372Z,12.80
2018-12-03T14:19:37.375Z,12.80
2018-12-03T14:22:14.353Z,12.90
2018-12-03T14:24:43.497Z,12.90
2018-12-03T14:27:12.557Z,12.90
2018-12-03T14:29:41.500Z,12.90
2018-12-03T14:32:21.806Z,12.90
2018-12-03T14:34:55.154Z,13.00
2018-12-03T14:37:32.781Z,12.90
2018-12-03T14:40:06.310Z,12.90
2018-12-03T14:42:43.969Z,12.90
2018-12-03T14:45:13.184Z,12.90
2018-12-03T14:47:41.942Z,12.90
2018-12-03T14:50:11.600Z,12.90
2018-12-03T14:52:40.499Z,12.80
2018-12-03T14:55:09.394Z,12.80
2018-12-03T14:57:38.339Z,12.70
2018-12-03T15:00:10.211Z,12.70
2018-12-03T15:02:39.312Z,12.60
2018-12-03T15:05:08.681Z,12.60
2018-12-03T15:07:37.992Z,12.50
2018-12-03T15:10:08.842Z,12.50
2018-12-03T15:12:37.799Z,12.50
2018-12-03T15:15:09.242Z,12.40
2018-12-03T15:17:40.265Z,12.40
2018-12-03T15:20:09.442Z,12.40
2018-12-03T15:22:38.495Z,12.50
2018-12-03T15:25:09.974Z,12.50
2018-12-03T15:27:39.274Z,12.50
2018-12-03T15:30:09.833Z,12.50
2018-12-03T15:32:39.036Z,12.50
2018-12-03T15:35:09.849Z,12.50
2018-12-03T15:37:39.059Z,12.50
2018-12-03T15:40:12.334Z,12.40
2018-12-03T15:42:41.684Z,12.40
2018-12-03T15:45:12.263Z,12.40
2018-12-03T15:47:41.412Z,12.40
2018-12-03T15:50:10.365Z,12.50
2018-12-03T15:52:39.325Z,12.50
2018-12-03T15:55:09.146Z,12.50
2018-12-03T15:57:38.233Z,12.50
2018-12-03T16:00:10.126Z,12.50
2018-12-03T16:02:39.192Z,12.50
2018-12-03T16:05:13.018Z,12.60
2018-12-03T16:07:42.239Z,12.60
2018-12-03T16:10:13.103Z,12.60
2018-12-03T16:12:42.700Z,12.60
2018-12-03T16:15:11.815Z,12.50
2018-12-03T16:17:41.947Z,12.50
2018-12-03T16:20:11.687Z,12.50
2018-12-03T16:22:40.836Z,12.50
2018-12-03T16:25:09.933Z,12.40
2018-12-03T16:27:39.009Z,12.30
2018-12-03T16:30:11.618Z,12.30
2018-12-03T16:32:41.729Z,12.30
2018-12-03T16:35:10.597Z,12.20
2018-12-03T16:37:39.589Z,12.20
2018-12-03T16:40:09.199Z,12.10
2018-12-03T16:42:38.955Z,12.10
2018-12-03T16:45:08.923Z,12.10
2018-12-03T16:47:38.138Z,12.00
2018-12-03T16:50:08.991Z,12.00
2018-12-03T16:52:38.317Z,12.00
2018-12-03T16:55:07.465Z,12.10
2018-12-03T16:57:36.356Z,12.10
2018-12-03T17:00:09.916Z,12.20
2018-12-03T17:02:39.283Z,12.10
2018-12-03T17:05:08.238Z,12.20
2018-12-03T17:07:37.282Z,12.10
2018-12-03T17:10:12.134Z,12.10
2018-12-03T17:12:41.312Z,12.10
2018-12-03T17:15:10.312Z,12.10
2018-12-03T17:17:39.540Z,12.10
2018-12-03T17:20:31.589Z,12.10
2018-12-03T17:23:20.557Z,12.00
2018-12-03T17:25:49.581Z,12.00
2018-12-03T17:28:19.060Z,12.00
2018-12-03T17:30:48.477Z,12.00
2018-12-03T17:33:17.589Z,12.00
2018-12-03T17:35:46.833Z,12.00
2018-12-03T17:38:15.990Z,12.00
2018-12-03T17:40:45.380Z,12.00
2018-12-03T17:43:14.486Z,12.00
2018-12-03T17:45:43.748Z,12.00
2018-12-03T17:48:12.950Z,12.00
2018-12-03T17:50:43.274Z,12.10
2018-12-03T17:53:12.444Z,12.10
2018-12-03T17:55:41.908Z,12.20
2018-12-03T17:58:12.290Z,12.20
2018-12-03T18:00:41.489Z,12.20
2018-12-03T18:03:10.543Z,12.20
2018-12-03T18:05:39.912Z,12.20
2018-12-03T18:08:10.275Z,12.30
2018-12-03T18:10:40.699Z,12.30
2018-12-03T18:13:09.999Z,12.30
2018-12-03T18:15:39.364Z,12.30
2018-12-03T18:18:09.323Z,12.30
2018-12-03T18:20:39.014Z,12.30
2018-12-03T18:23:08.537Z,12.30
2018-12-03T18:25:38.059Z,12.30
2018-12-03T18:28:07.382Z,12.30
2018-12-03T18:30:36.928Z,12.20
2018-12-03T18:33:06.351Z,12.20
2018-12-03T18:35:37.225Z,12.20
2018-12-03T18:38:06.724Z,12.20
2018-12-03T18:40:36.259Z,12.30
2018-12-03T18:43:06.527Z,12.30
2018-12-03T18:45:36.027Z,12.30
2018-12-03T18:48:05.611Z,12.30
2018-12-03T18:50:37.246Z,12.30
2018-12-03T18:53:15.330Z,12.30
2018-12-03T18:55:45.241Z,12.30
2018-12-03T18:58:17.396Z,12.40
2018-12-03T19:00:46.758Z,12.40
2018-12-03T19:03:16.981Z,12.40
2018-12-03T19:05:46.276Z,12.40
2018-12-03T19:08:15.515Z,12.40
2018-12-03T19:10:47.503Z,12.40
2018-12-03T19:13:16.825Z,12.40
2018-12-03T19:15:46.111Z,12.40
2018-12-03T19:18:16.032Z,12.40
2018-12-03T19:20:46.332Z,12.50
2018-12-03T19:23:15.642Z,12.50
2018-12-03T19:25:45.073Z,12.50
2018-12-03T19:28:14.446Z,12.50
2018-12-03T19:30:44.525Z,12.50
2018-12-03T19:33:14.552Z,12.40
2018-12-03T19:35:44.004Z,12.40
2018-12-03T19:38:14.272Z,12.30
2018-12-03T19:40:43.782Z,12.30
2018-12-03T19:43:13.696Z,12.40
2018-12-03T19:45:43.421Z,12.40
2018-12-03T19:48:13.082Z,12.50
2018-12-03T19:50:42.480Z,12.40
2018-12-03T19:53:12.090Z,12.50
2018-12-03T19:55:41.681Z,12.50
2018-12-03T19:58:14.393Z,12.50
2018-12-03T20:00:45.802Z,12.50
2018-12-03T20:03:15.075Z,12.50
2018-12-03T20:05:44.492Z,12.60
2018-12-03T20:08:13.963Z,12.60
2018-12-03T20:10:44.269Z,12.60
2018-12-03T20:13:13.659Z,12.60
2018-12-03T20:15:43.139Z,12.60
2018-12-03T20:18:12.868Z,12.70
2018-12-03T20:20:46.559Z,12.70
2018-12-03T20:23:27.426Z,12.70
2018-12-03T20:26:04.971Z,12.60
2018-12-03T20:28:43.040Z,12.60
2018-12-03T20:31:40.087Z,12.60
2018-12-03T20:34:14.455Z,12.60
2018-12-03T20:36:52.852Z,12.70
2018-12-03T20:39:36.313Z,12.70
2018-12-03T20:42:06.822Z,12.70
2018-12-03T20:44:46.271Z,12.70
2018-12-03T20:47:23.892Z,12.70
2018-12-03T20:50:06.174Z,12.70
2018-12-03T20:52:36.600Z,12.70
2018-12-03T20:55:42.257Z,12.70
2018-12-03T20:58:11.652Z,12.70
2018-12-03T21:00:42.096Z,12.70
2018-12-03T21:03:12.125Z,12.70
2018-12-03T21:05:41.611Z,12.80
2018-12-03T21:08:11.169Z,12.80
2018-12-03T21:10:40.521Z,12.70
2018-12-03T21:13:10.362Z,12.70
2018-12-03T21:15:39.956Z,12.70
2018-12-03T21:18:09.770Z,12.80
2018-12-03T21:20:46.190Z,12.70
2018-12-03T21:23:15.654Z,12.70
2018-12-03T21:25:45.072Z,12.70
2018-12-03T21:28:14.297Z,12.70
2018-12-03T21:30:43.764Z,12.70
2018-12-03T21:33:13.216Z,12.70
2018-12-03T21:35:42.581Z,12.70
2018-12-03T21:38:11.915Z,12.80
2018-12-03T21:40:41.449Z,12.80
2018-12-03T21:43:10.709Z,12.70
2018-12-03T21:45:40.471Z,12.70
2018-12-03T21:48:09.847Z,12.80
2018-12-03T21:50:39.010Z,12.70
2018-12-03T21:53:08.354Z,12.70
2018-12-03T21:55:37.493Z,12.80
2018-12-03T21:58:06.683Z,12.80
2018-12-03T22:00:36.113Z,12.80
2018-12-03T22:03:05.804Z,12.80
2018-12-03T22:05:34.870Z,12.80
2018-12-03T22:08:03.750Z,12.80
2018-12-03T22:10:32.606Z,12.80
2018-12-03T22:13:02.122Z,12.80
2018-12-03T22:15:31.670Z,12.80
2018-12-03T22:18:00.577Z,12.80
2018-12-03T22:20:29.485Z,12.80
2018-12-03T22:22:58.574Z,12.80
2018-12-03T22:25:28.812Z,12.80
2018-12-03T22:27:57.672Z,12.80
2018-12-03T22:30:27.141Z,12.80
2018-12-03T22:32:56.644Z,12.80
2018-12-03T22:35:25.771Z,12.80
2018-12-03T22:37:54.889Z,12.70
2018-12-03T22:40:24.166Z,12.80
2018-12-03T22:42:53.097Z,12.80
2018-12-03T22:45:22.968Z,12.70
2018-12-03T22:47:52.108Z,12.70
2018-12-03T22:50:21.043Z,12.60
2018-12-03T22:52:49.925Z,12.50
2018-12-03T22:55:18.845Z,12.50
2018-12-03T22:57:48.136Z,12.40
2018-12-03T23:00:22.492Z,12.40
2018-12-03T23:02:51.487Z,12.40
2018-12-03T23:05:20.687Z,12.40
2018-12-03T23:07:49.769Z,12.40
2018-12-03T23:10:19.243Z,12.40
2018-12-03T23:12:48.126Z,12.40
2018-12-03T23:15:17.051Z,12.40
2018-12-03T23:17:45.927Z,12.40
2018-12-03T23:20:17.069Z,12.30
2018-12-03T23:22:46.253Z,12.30
2018-12-03T23:25:15.370Z,12.30
2018-12-03T23:27:44.324Z,12.30
2018-12-03T23:30:13.922Z,12.30
2018-12-03T23:32:42.799Z,12.30
2018-12-03T23:35:11.840Z,12.30
2018-12-03T23:37:41.448Z,12.30
2018-12-03T23:40:10.281Z,12.30
2018-12-03T23:42:39.245Z,12.30
2018-12-03T23:45:08.485Z,12.20
2018-12-03T23:47:37.404Z,12.20
2018-12-03T23:50:06.790Z,12.30
2018-12-03T23:52:35.733Z,12.30
2018-12-03T23:55:05.530Z,12.30
2018-12-03T23:57:34.445Z,12.20
